Hauptseite
METAR-TAF:

METAR-TAF

Flughäfen :

Exeter, England

Exeter International Airport

Breite: 50-44N, Länge: 003-25W, Höhe: 30 m

Beobachtung

Neuester Wetterbericht von vor 1 Stunde und 42 Minuten, um 23:20 UTC
Wind 7 kt aus Süd/Südwest
Temperatur 4°C
Luftfeuchtigkeit 87%
Luftdruck 1010 hPa
Sichtweite 10 km oder mehr
Aufgelockert bewölkt in der Höhe von 2500 ft

METAR: EGTE 192320Z 21007KT 9999 SCT025 04/02 Q1010

Zeit: 01:02 (01:02 UTC)

Prognose

Neuester Wetterbericht von vor 1 Stunde und 56 Minuten, um 23:06 UTC
Gültige Prognose vom 20 um 00 UTC bis 20 um 02 UTC
Wind 5 kt aus Süd
Sichtweite 10 km oder mehr
Aufgelockert bewölkt in der Höhe von 3000 ft
Wahrscheinlichkeit 30%
vom 20 um 00 UTC bis 20 um 02 UTC
Sichtweite: 8000 m
Leichtregen

TAF: EGTE 192306Z 2000/2002 19005KT 9999 SCT030 PROB30 2000/2002 8000 -RA

Wetterbeobachtungen und Prognosen von mehr als 4000 Flughäfen (METAR und TAF Bericht).

Die verfügbaren Stationen werden durch gelbe und rote Markierungen auf der Karte dargestellt.

Führen Sie die Maus auf sie, um den Namen der Station zu sehen.

Darauf klicken, um die Beobachtung von Wetterbeobachtungen und Prognosen zu sehen.

Um die Karte zu ändern : klicken Sie auf den grünen Tasten mit einem schwarzen Kreuz Zum Vergrößern, auf den grünen Button mit einem Gedankenstrich zu verkleinern, oder auf die grünen Pfeile für benachbarte Karten.


METAR-TAF: